Terminal Aerodrome Forecast
Issued by NWS Grand Forks, ND

Home | Current Version | Previous Version | Graphics & Text | Print | Product List | Glossary On
Versions: 1 2 3 4 5 6 7 8 9 10 11 12 13 14 15 16
000
FTUS43 KFGF 182300
TAFFAR
TAF
KFAR 182324Z 1900/1924 19014KT P6SM OVC050
      TEMPO 1900/1902 -SN
     FM190600 32013G20KT P6SM OVC025
     FM191700 31020G29KT P6SM BKN050=

USA.gov is the U.S. government's official web portal to all federal, state and local government web resources and services.